KSTK/STK METAR and TAF weather

Enter ICAO airport designator
Station Type Date Time Source
KSTK METAR 2020/04/05 06:20 UTC NOAA

KSTK 050620Z AUTO 19011KT 10SM CLR 05/M02 A2986 RMK AO2


Station Type Date Time Source
KSTK Decoded METAR 2020/04/05 06:20 UTC NOAA

Station name not available
Apr 05, 2020 - 02:20 AM EDT / 2020.04.05 0620 UTC
Wind: from the S (190 degrees) at 13 MPH (11 KT):0
Visibility: 10 mile(s):0
Sky conditions: clear
Temperature: 41 F (5 C)
Dew Point: 28 F (-2 C)
Relative Humidity: 60%
Pressure (altimeter): 29.86 in. Hg (1011 hPa)
ob: KSTK 050620Z AUTO 19011KT 10SM CLR 05/M02 A2986 RMK AO2
cycle: 6

Station Type Date Time Source
KSTK TAF UTC NOAA

Error!

Example: see airport list